Time;durP1;ratioP1;P1;durP2;ratioP2;P2;SDS_P1;SDS_P2;PMS_P1;PMS_P2;Temp;Humidity;BMP_temperature;BMP_pressure;BME280_temperature;BME280_humidity;BME280_pressure;Samples;Min_cycle;Max_cycle;Signal;HPM_P1;HPM_P2
2023/09/24 00:04:23;;;;;;;1.40;0.40;;;;;;;;;;12986938;22;20429;-88
2023/09/24 00:09:27;;;;;;;0.65;0.40;;;;;;;;;;12987299;22;20946;-86
2023/09/24 00:14:30;;;;;;;0.90;0.50;;;;;;;;;;12987252;22;20374;-88
2023/09/24 00:19:33;;;;;;;0.50;0.50;;;;;;;;;;12985502;22;20428;-88
2023/09/24 00:24:38;;;;;;;1.55;0.50;;;;;;;;;;12986488;22;20881;-88
2023/09/24 00:29:40;;;;;;;2.05;0.77;;;;;;;;;;13007704;22;20424;-88
2023/09/24 00:34:43;;;;;;;2.08;0.70;;;;;;;;;;12986292;22;20420;-88
2023/09/24 00:39:47;;;;;;;1.08;0.80;;;;;;;;;;12986537;22;20362;-88
2023/09/24 00:44:49;;;;;;;2.60;1.13;;;;;;;;;;12985456;22;20359;-89
2023/09/24 00:49:54;;;;;;;1.67;1.00;;;;;;;;;;12984544;22;20383;-88
2023/09/24 00:54:58;;;;;;;1.73;1.10;;;;;;;;;;12985618;22;20371;-88
2023/09/24 01:00:05;;;;;;;2.58;1.55;;;;;;;;;;13006701;22;20370;-88
2023/09/24 01:05:10;;;;;;;2.35;1.50;;;;;;;;;;12995190;22;20394;-88
2023/09/24 01:10:15;;;;;;;3.30;1.60;;;;;;;;;;12985648;22;20665;-88
2023/09/24 01:15:18;;;;;;;2.47;1.50;;;;;;;;;;12986281;22;20842;-89
2023/09/24 01:20:21;;;;;;;2.87;1.97;;;;;;;;;;12984992;22;20367;-88
2023/09/24 01:25:25;;;;;;;3.55;2.60;;;;;;;;;;12985125;22;20428;-88
2023/09/24 01:30:28;;;;;;;5.13;2.88;;;;;;;;;;12983759;22;20413;-88
2023/09/24 01:35:33;;;;;;;5.20;2.60;;;;;;;;;;12984387;22;20424;-88
2023/09/24 01:40:38;;;;;;;4.00;3.07;;;;;;;;;;12985731;22;20375;-88
2023/09/24 01:45:40;;;;;;;3.45;2.90;;;;;;;;;;12984696;22;20367;-89
2023/09/24 01:50:43;;;;;;;4.90;2.80;;;;;;;;;;12985930;22;20437;-88
2023/09/24 01:55:47;;;;;;;4.07;2.83;;;;;;;;;;12985023;22;20379;-88
2023/09/24 02:00:50;;;;;;;4.38;2.80;;;;;;;;;;12983752;22;20359;-88
2023/09/24 02:05:52;;;;;;;5.45;2.80;;;;;;;;;;12984077;22;20363;-88
2023/09/24 02:10:57;;;;;;;4.13;2.30;;;;;;;;;;12983289;22;20386;-88
2023/09/24 02:16:01;;;;;;;3.87;2.30;;;;;;;;;;12983651;22;20367;-89
2023/09/24 02:21:14;;;;;;;2.70;2.00;;;;;;;;;;13004874;22;20416;-88
2023/09/24 02:26:17;;;;;;;3.25;2.05;;;;;;;;;;12983190;22;20367;-88
2023/09/24 02:31:21;;;;;;;3.78;1.92;;;;;;;;;;12983044;22;20382;-88
2023/09/24 02:36:24;;;;;;;4.47;2.00;;;;;;;;;;12983672;22;20472;-88
2023/09/24 02:41:29;;;;;;;4.77;2.13;;;;;;;;;;12983548;22;20723;-88
2023/09/24 02:46:31;;;;;;;2.03;1.55;;;;;;;;;;12983573;22;20392;-88
2023/09/24 02:51:35;;;;;;;2.40;1.55;;;;;;;;;;12987044;22;20383;-88
2023/09/24 02:56:39;;;;;;;2.95;1.70;;;;;;;;;;12990505;22;20355;-88
2023/09/24 03:01:46;;;;;;;3.30;1.58;;;;;;;;;;13003261;22;20413;-88
2023/09/24 03:06:49;;;;;;;2.53;1.70;;;;;;;;;;12983021;22;20473;-88
2023/09/24 03:11:54;;;;;;;3.85;1.90;;;;;;;;;;12983345;22;20441;-88
2023/09/24 03:16:56;;;;;;;2.30;1.90;;;;;;;;;;12984359;22;20366;-88
2023/09/24 03:21:59;;;;;;;2.60;1.70;;;;;;;;;;13008007;22;20362;-88
2023/09/24 03:27:03;;;;;;;2.60;1.80;;;;;;;;;;13009000;22;20358;-88
2023/09/24 03:32:06;;;;;;;3.93;2.13;;;;;;;;;;12987155;22;20695;-88
2023/09/24 03:37:09;;;;;;;2.75;2.00;;;;;;;;;;12986323;22;20833;-88
2023/09/24 03:42:14;;;;;;;4.97;2.40;;;;;;;;;;12987007;22;20427;-88
2023/09/24 03:47:16;;;;;;;5.23;2.07;;;;;;;;;;13009236;22;20825;-88
2023/09/24 03:52:19;;;;;;;3.90;1.90;;;;;;;;;;13007570;22;20374;-88
2023/09/24 03:57:27;;;;;;;3.03;1.73;;;;;;;;;;12986744;22;20826;-87
2023/09/24 04:02:29;;;;;;;2.00;1.80;;;;;;;;;;12985988;22;20370;-87
2023/09/24 04:07:32;;;;;;;3.40;2.05;;;;;;;;;;12986285;22;20370;-87
2023/09/24 04:12:36;;;;;;;2.03;1.63;;;;;;;;;;12986970;22;20919;-88
2023/09/24 04:17:39;;;;;;;2.97;2.00;;;;;;;;;;12985049;22;20472;-88
2023/09/24 04:22:42;;;;;;;3.65;1.95;;;;;;;;;;12985801;22;20428;-88
2023/09/24 04:27:46;;;;;;;3.30;2.00;;;;;;;;;;12984454;22;20814;-88
2023/09/24 04:32:51;;;;;;;2.80;2.08;;;;;;;;;;12984974;22;20710;-88
2023/09/24 04:37:54;;;;;;;5.70;3.00;;;;;;;;;;12985636;22;20818;-88
2023/09/24 04:42:58;;;;;;;3.55;2.20;;;;;;;;;;13018003;22;20397;-88
2023/09/24 04:48:00;;;;;;;2.87;2.10;;;;;;;;;;12985541;22;20592;-88
2023/09/24 04:53:05;;;;;;;5.30;2.30;;;;;;;;;;12984591;22;20379;-88
2023/09/24 04:58:11;;;;;;;4.22;3.05;;;;;;;;;;12986119;22;20683;-87
2023/09/24 05:03:14;;;;;;;4.30;2.40;;;;;;;;;;12985881;22;20822;-88
2023/09/24 05:08:16;;;;;;;3.22;2.35;;;;;;;;;;12984520;22;20405;-88
2023/09/24 05:13:20;;;;;;;3.43;2.33;;;;;;;;;;12984581;22;20367;-88
2023/09/24 05:18:22;;;;;;;3.30;2.25;;;;;;;;;;12983957;22;20366;-89
2023/09/24 05:23:25;;;;;;;4.63;2.78;;;;;;;;;;12983894;22;20448;-88
2023/09/24 05:28:29;;;;;;;5.47;2.57;;;;;;;;;;12984266;22;20436;-87
2023/09/24 05:33:31;;;;;;;4.00;2.33;;;;;;;;;;12983983;22;20428;-88
2023/09/24 05:38:33;;;;;;;4.83;2.20;;;;;;;;;;12982835;22;20360;-88
2023/09/24 05:43:44;;;;;;;4.55;2.17;;;;;;;;;;12984260;22;20375;-88
2023/09/24 05:48:46;;;;;;;3.38;2.03;;;;;;;;;;12982963;22;20420;-88
2023/09/24 05:53:49;;;;;;;3.33;2.30;;;;;;;;;;12984155;22;20472;-88
2023/09/24 05:58:53;;;;;;;4.03;2.60;;;;;;;;;;12983222;22;20363;-88
2023/09/24 06:03:56;;;;;;;5.17;2.80;;;;;;;;;;12981830;22;20363;-88
2023/09/24 06:08:58;;;;;;;4.50;2.10;;;;;;;;;;13005447;22;20375;-88
2023/09/24 06:14:03;;;;;;;2.90;1.40;;;;;;;;;;12980683;22;20366;-88
2023/09/24 06:19:06;;;;;;;3.40;2.00;;;;;;;;;;12980913;22;20379;-91
2023/09/24 06:24:09;;;;;;;3.00;1.75;;;;;;;;;;12974647;22;20405;-91
2023/09/24 06:29:13;;;;;;;3.58;2.50;;;;;;;;;;12970833;22;20375;-93
2023/09/24 06:34:16;;;;;;;2.72;2.28;;;;;;;;;;12973796;22;20366;-91
2023/09/24 06:39:18;;;;;;;3.67;2.10;;;;;;;;;;12973470;22;20378;-93
2023/09/24 06:44:24;;;;;;;2.63;1.95;;;;;;;;;;12983951;22;20707;-93
2023/09/24 06:49:27;;;;;;;3.55;1.80;;;;;;;;;;12971985;22;20451;-93
2023/09/24 06:54:29;;;;;;;1.73;1.60;;;;;;;;;;12965522;22;20378;-92
2023/09/24 06:59:33;;;;;;;2.70;1.90;;;;;;;;;;12972840;22;20885;-92
2023/09/24 07:04:36;;;;;;;2.78;1.98;;;;;;;;;;12981957;22;20987;-93
2023/09/24 07:09:38;;;;;;;1.90;1.30;;;;;;;;;;13009350;22;20440;-90
2023/09/24 07:14:42;;;;;;;2.88;1.85;;;;;;;;;;12979179;22;20405;-85
2023/09/24 07:19:45;;;;;;;2.00;1.50;;;;;;;;;;12978185;22;20358;-84
2023/09/24 07:24:48;;;;;;;2.40;1.52;;;;;;;;;;12982168;22;20367;-90
2023/09/24 07:29:52;;;;;;;1.83;1.20;;;;;;;;;;12978194;22;20448;-90
2023/09/24 07:34:54;;;;;;;2.80;1.45;;;;;;;;;;12980148;22;20427;-90
2023/09/24 07:39:57;;;;;;;2.45;1.17;;;;;;;;;;12982047;22;20429;-90
2023/09/24 07:45:01;;;;;;;2.58;1.20;;;;;;;;;;12980316;22;20428;-92
2023/09/24 07:50:04;;;;;;;3.17;1.20;;;;;;;;;;12983524;22;20378;-91
2023/09/24 07:55:07;;;;;;;1.00;0.90;;;;;;;;;;12983360;22;20749;-90
2023/09/24 08:00:13;;;;;;;0.88;0.50;;;;;;;;;;13004476;22;20683;-90
2023/09/24 08:05:15;;;;;;;0.88;0.45;;;;;;;;;;12985334;22;20354;-91
2023/09/24 08:10:18;;;;;;;1.15;0.50;;;;;;;;;;12986744;22;20412;-90
2023/09/24 08:15:22;;;;;;;1.37;0.60;;;;;;;;;;12985794;22;20370;-91
2023/09/24 08:20:25;;;;;;;0.85;0.47;;;;;;;;;;12986136;22;20393;-90
2023/09/24 08:25:27;;;;;;;0.50;0.30;;;;;;;;;;12983348;22;20363;-90
2023/09/24 08:30:33;;;;;;;0.75;0.45;;;;;;;;;;13015143;22;20440;-91
2023/09/24 08:35:36;;;;;;;0.73;0.35;;;;;;;;;;12986352;22;20358;-91
2023/09/24 08:40:41;;;;;;;2.60;0.30;;;;;;;;;;12986352;22;20367;-91
2023/09/24 08:45:45;;;;;;;1.10;0.40;;;;;;;;;;12986879;22;20679;-91
2023/09/24 08:50:48;;;;;;;1.53;0.30;;;;;;;;;;12986145;22;20378;-92
2023/09/24 08:55:51;;;;;;;2.30;0.30;;;;;;;;;;12985290;22;20359;-92
2023/09/24 09:00:55;;;;;;;0.88;0.40;;;;;;;;;;12983531;22;20359;-92
2023/09/24 09:05:57;;;;;;;0.73;0.40;;;;;;;;;;12980716;22;20416;-91
2023/09/24 09:11:00;;;;;;;0.40;0.30;;;;;;;;;;12981404;22;20386;-92
2023/09/24 09:16:08;;;;;;;0.52;0.40;;;;;;;;;;12984196;22;20413;-91
2023/09/24 09:21:10;;;;;;;2.60;0.52;;;;;;;;;;12984071;22;21106;-92
2023/09/24 09:26:13;;;;;;;0.45;0.30;;;;;;;;;;12981660;22;20421;-92
2023/09/24 09:31:18;;;;;;;0.57;0.43;;;;;;;;;;12985260;22;20683;-92
2023/09/24 09:36:23;;;;;;;0.83;0.33;;;;;;;;;;12984479;22;20389;-92
2023/09/24 09:41:26;;;;;;;0.45;0.30;;;;;;;;;;12984021;22;20359;-92
2023/09/24 09:46:30;;;;;;;0.50;0.30;;;;;;;;;;12983007;22;20362;-92
2023/09/24 09:51:39;;;;;;;0.57;0.40;;;;;;;;;;12981833;22;20846;-93
2023/09/24 09:56:42;;;;;;;1.10;0.30;;;;;;;;;;12984611;22;20818;-95
2023/09/24 10:01:46;;;;;;;0.50;0.30;;;;;;;;;;12984546;22;20370;-91
2023/09/24 10:06:48;;;;;;;0.65;0.43;;;;;;;;;;12982966;22;20821;-90
2023/09/24 10:11:55;;;;;;;0.63;0.43;;;;;;;;;;12980573;22;20425;-92
2023/09/24 10:17:23;;;;;;;1.10;0.40;;;;;;;;;;12982453;22;20363;-92
2023/09/24 10:22:28;;;;;;;0.80;0.50;;;;;;;;;;12992370;22;20424;-92
2023/09/24 10:27:34;;;;;;;0.82;0.45;;;;;;;;;;13006154;22;20424;-93
2023/09/24 10:32:56;;;;;;;2.30;0.50;;;;;;;;;;12983088;22;20390;-93
2023/09/24 10:38:02;;;;;;;0.60;0.40;;;;;;;;;;12982195;22;20363;-92
2023/09/24 10:43:26;;;;;;;0.93;0.63;;;;;;;;;;12982064;22;20358;-89
2023/09/24 10:48:30;;;;;;;0.60;0.60;;;;;;;;;;12970981;22;20401;-90
2023/09/24 10:53:32;;;;;;;1.52;0.60;;;;;;;;;;12978882;22;20443;-91
2023/09/24 10:58:34;;;;;;;0.60;0.50;;;;;;;;;;12996275;22;20958;-91
2023/09/24 11:03:39;;;;;;;1.02;0.70;;;;;;;;;;12983463;22;20421;-91
2023/09/24 11:08:42;;;;;;;0.98;0.60;;;;;;;;;;12984198;22;20362;-91
2023/09/24 11:13:44;;;;;;;0.77;0.50;;;;;;;;;;12982815;22;20390;-91
2023/09/24 11:18:51;;;;;;;0.95;0.45;;;;;;;;;;12973156;22;20370;-91
2023/09/24 11:23:54;;;;;;;1.70;0.77;;;;;;;;;;12977004;22;20452;-91
2023/09/24 11:28:57;;;;;;;1.83;0.60;;;;;;;;;;12974381;22;20405;-91
2023/09/24 11:34:01;;;;;;;0.88;0.47;;;;;;;;;;12974598;22;20391;-91
2023/09/24 11:39:03;;;;;;;0.82;0.60;;;;;;;;;;12977273;22;20378;-90
2023/09/24 11:44:06;;;;;;;1.10;0.60;;;;;;;;;;12979239;22;20379;-92
2023/09/24 11:49:11;;;;;;;0.93;0.40;;;;;;;;;;12989824;22;20424;-92
2023/09/24 11:54:13;;;;;;;3.40;0.57;;;;;;;;;;12979061;22;20903;-92
2023/09/24 11:59:16;;;;;;;1.48;0.50;;;;;;;;;;12985364;22;20363;-92
2023/09/24 12:04:19;;;;;;;0.98;0.50;;;;;;;;;;12993015;22;20359;-91
2023/09/24 12:09:22;;;;;;;1.10;0.50;;;;;;;;;;13016075;22;20397;-92
2023/09/24 12:14:26;;;;;;;0.85;0.50;;;;;;;;;;12987894;22;20382;-92
2023/09/24 12:19:29;;;;;;;0.93;0.50;;;;;;;;;;12986648;22;20366;-92
2023/09/24 12:24:34;;;;;;;1.30;0.50;;;;;;;;;;13008902;22;20366;-93
2023/09/24 12:29:36;;;;;;;0.80;0.40;;;;;;;;;;12987842;22;20428;-91
2023/09/24 12:34:40;;;;;;;2.25;0.60;;;;;;;;;;13007601;22;20503;-92
2023/09/24 12:39:43;;;;;;;1.27;0.50;;;;;;;;;;12985523;22;20458;-91
2023/09/24 12:44:45;;;;;;;1.60;0.60;;;;;;;;;;12985311;22;20448;-93
2023/09/24 12:49:49;;;;;;;1.27;0.57;;;;;;;;;;12983734;22;20367;-91
2023/09/24 12:54:51;;;;;;;0.45;0.40;;;;;;;;;;12985188;22;20383;-92
2023/09/24 12:59:54;;;;;;;1.40;0.70;;;;;;;;;;13007500;22;20363;-92
2023/09/24 13:04:58;;;;;;;1.52;0.40;;;;;;;;;;12985585;22;20436;-93
2023/09/24 13:10:01;;;;;;;0.60;0.40;;;;;;;;;;12985389;22;20675;-93
2023/09/24 13:15:03;;;;;;;1.67;0.40;;;;;;;;;;13006169;22;20436;-93
2023/09/24 13:20:09;;;;;;;0.70;0.50;;;;;;;;;;13003554;22;20694;-93
2023/09/24 13:25:12;;;;;;;0.43;0.30;;;;;;;;;;12985602;22;20394;-92
2023/09/24 13:30:15;;;;;;;0.82;0.57;;;;;;;;;;13007268;22;20350;-92
2023/09/24 13:35:18;;;;;;;0.40;0.40;;;;;;;;;;12980408;22;20382;-92
2023/09/24 13:40:21;;;;;;;1.13;0.40;;;;;;;;;;12984343;22;20421;-92
2023/09/24 13:45:23;;;;;;;0.40;0.32;;;;;;;;;;12984526;22;20393;-93
2023/09/24 13:50:27;;;;;;;0.67;0.40;;;;;;;;;;12988932;22;20457;-91
2023/09/24 13:55:35;;;;;;;1.55;0.55;;;;;;;;;;13020904;22;20378;-92
2023/09/24 14:00:37;;;;;;;0.88;0.40;;;;;;;;;;12985053;22;20367;-93
2023/09/24 14:05:41;;;;;;;0.60;0.40;;;;;;;;;;12984077;22;20454;-92
2023/09/24 14:16:03;;;;;;;0.85;0.45;;;;;;;;;;13006434;22;20397;-93
2023/09/24 14:21:11;;;;;;;1.17;0.30;;;;;;;;;;12983613;22;20417;-92
2023/09/24 14:26:13;;;;;;;1.05;0.40;;;;;;;;;;12985280;22;20370;-92
2023/09/24 14:31:16;;;;;;;0.70;0.30;;;;;;;;;;12984169;22;20436;-92
2023/09/24 14:36:20;;;;;;;0.88;0.40;;;;;;;;;;13005614;22;20362;-92
2023/09/24 14:41:23;;;;;;;0.40;0.30;;;;;;;;;;12984086;22;20401;-92
2023/09/24 14:46:26;;;;;;;0.70;0.30;;;;;;;;;;13005575;22;20358;-92
2023/09/24 14:51:32;;;;;;;0.75;0.30;;;;;;;;;;12984195;22;20434;-92
2023/09/24 14:56:35;;;;;;;0.25;0.25;;;;;;;;;;12983769;22;20363;-92
2023/09/24 15:01:39;;;;;;;1.05;0.32;;;;;;;;;;12983668;22;20455;-92
2023/09/24 15:06:42;;;;;;;0.30;0.30;;;;;;;;;;12983684;22;20366;-93
2023/09/24 15:11:45;;;;;;;0.50;0.50;;;;;;;;;;12984044;22;20694;-92
2023/09/24 15:16:47;;;;;;;1.05;0.50;;;;;;;;;;12987836;22;20362;-92
2023/09/24 15:21:51;;;;;;;0.40;0.40;;;;;;;;;;13009361;22;20440;-93
2023/09/24 15:26:53;;;;;;;1.00;0.30;;;;;;;;;;12987631;22;20396;-92
2023/09/24 15:31:56;;;;;;;0.60;0.30;;;;;;;;;;12987776;22;20378;-93
2023/09/24 15:37:00;;;;;;;1.08;0.40;;;;;;;;;;12987345;22;20424;-93
2023/09/24 15:42:02;;;;;;;0.50;0.33;;;;;;;;;;13004722;22;20366;-93
2023/09/24 15:47:05;;;;;;;0.93;0.38;;;;;;;;;;12988871;22;20822;-93
2023/09/24 15:52:09;;;;;;;1.80;0.40;;;;;;;;;;12986295;22;20379;-93
2023/09/24 15:57:11;;;;;;;0.43;0.40;;;;;;;;;;12986676;22;20396;-92
2023/09/24 16:02:14;;;;;;;1.38;0.30;;;;;;;;;;12987168;22;20362;-93
2023/09/24 16:07:18;;;;;;;2.63;0.40;;;;;;;;;;12987011;22;20358;-93
2023/09/24 16:12:21;;;;;;;0.90;0.45;;;;;;;;;;13007501;22;20370;-94
2023/09/24 16:17:24;;;;;;;1.20;0.50;;;;;;;;;;12985918;22;20367;-92
2023/09/24 16:22:28;;;;;;;0.40;0.30;;;;;;;;;;12987364;22;20359;-92
2023/09/24 16:27:30;;;;;;;0.47;0.40;;;;;;;;;;12985931;22;20358;-93
2023/09/24 16:32:33;;;;;;;0.60;0.40;;;;;;;;;;12985595;22;20374;-92
2023/09/24 16:37:38;;;;;;;1.20;0.50;;;;;;;;;;12986140;22;20366;-92
2023/09/24 16:42:45;;;;;;;0.70;0.30;;;;;;;;;;12985256;22;20355;-93
2023/09/24 16:47:47;;;;;;;0.60;0.40;;;;;;;;;;13007637;22;20413;-92
2023/09/24 16:52:51;;;;;;;2.55;0.43;;;;;;;;;;12985564;22;20826;-92
2023/09/24 16:57:53;;;;;;;1.23;0.50;;;;;;;;;;12986682;22;20433;-93
2023/09/24 17:02:56;;;;;;;0.60;0.40;;;;;;;;;;12985542;22;20366;-92
2023/09/24 17:07:59;;;;;;;2.00;0.90;;;;;;;;;;12986225;22;20370;-92
2023/09/24 17:13:02;;;;;;;1.30;0.40;;;;;;;;;;12987536;22;20386;-92
2023/09/24 17:18:06;;;;;;;1.42;0.47;;;;;;;;;;12985447;22;20904;-92
2023/09/24 17:23:10;;;;;;;1.95;0.70;;;;;;;;;;12985230;22;20448;-92
2023/09/24 17:28:15;;;;;;;0.85;0.45;;;;;;;;;;13005177;22;20362;-92
2023/09/24 17:33:17;;;;;;;1.00;0.50;;;;;;;;;;12985677;22;20482;-92
2023/09/24 17:38:21;;;;;;;1.33;0.60;;;;;;;;;;12984414;22;20397;-92
2023/09/24 17:43:24;;;;;;;1.80;0.80;;;;;;;;;;13006948;22;20915;-92
2023/09/24 17:48:27;;;;;;;0.70;0.60;;;;;;;;;;12984438;22;20436;-93
2023/09/24 17:53:31;;;;;;;1.25;0.50;;;;;;;;;;12978854;22;20386;-91
2023/09/24 17:58:33;;;;;;;0.83;0.60;;;;;;;;;;12975602;22;20723;-92
2023/09/24 18:03:36;;;;;;;2.10;0.60;;;;;;;;;;12979352;22;20374;-92
2023/09/24 18:08:39;;;;;;;1.63;0.60;;;;;;;;;;12981380;22;20401;-91
2023/09/24 18:13:42;;;;;;;1.33;0.53;;;;;;;;;;12984125;22;20378;-91
2023/09/24 18:18:46;;;;;;;3.90;0.90;;;;;;;;;;12983272;22;20366;-91
2023/09/24 18:23:50;;;;;;;3.20;1.00;;;;;;;;;;12981269;22;20363;-91
2023/09/24 18:28:53;;;;;;;1.50;0.65;;;;;;;;;;12976931;22;20830;-92
2023/09/24 18:33:55;;;;;;;1.00;0.60;;;;;;;;;;13001714;22;20382;-92
2023/09/24 18:38:59;;;;;;;1.52;0.88;;;;;;;;;;12982781;22;20370;-93
2023/09/24 18:44:01;;;;;;;1.92;1.10;;;;;;;;;;13004227;22;20428;-91
2023/09/24 18:49:04;;;;;;;2.00;0.73;;;;;;;;;;13004101;22;20463;-92
2023/09/24 18:54:08;;;;;;;1.23;0.80;;;;;;;;;;12983737;22;20900;-92
2023/09/24 18:59:11;;;;;;;1.40;0.80;;;;;;;;;;12983271;22;20432;-92
2023/09/24 19:04:13;;;;;;;2.03;0.88;;;;;;;;;;12983918;22;20452;-92
2023/09/24 19:09:17;;;;;;;1.98;1.00;;;;;;;;;;12984732;22;20363;-92
2023/09/24 19:14:20;;;;;;;1.40;0.90;;;;;;;;;;13005921;22;20379;-92
2023/09/24 19:19:22;;;;;;;1.83;0.90;;;;;;;;;;12983324;22;20389;-92
2023/09/24 19:24:26;;;;;;;1.60;0.90;;;;;;;;;;12983733;22;20426;-92
2023/09/24 19:29:28;;;;;;;1.60;0.80;;;;;;;;;;12984729;22;20393;-93
2023/09/24 19:34:31;;;;;;;4.37;1.30;;;;;;;;;;12983454;22;20386;-92
2023/09/24 19:39:37;;;;;;;1.23;0.90;;;;;;;;;;12983430;22;20371;-91
2023/09/24 19:44:39;;;;;;;1.60;1.00;;;;;;;;;;13004796;22;20366;-92
2023/09/24 19:49:42;;;;;;;1.10;1.00;;;;;;;;;;13005062;22;20363;-92
2023/09/24 19:54:45;;;;;;;1.38;1.02;;;;;;;;;;12983707;22;20911;-91
2023/09/24 19:59:48;;;;;;;3.58;1.10;;;;;;;;;;13005870;22;20370;-92
2023/09/24 20:04:50;;;;;;;2.03;1.15;;;;;;;;;;12987644;22;20358;-92
2023/09/24 20:09:56;;;;;;;1.07;0.90;;;;;;;;;;12987629;22;20428;-92
2023/09/24 20:14:59;;;;;;;1.50;1.08;;;;;;;;;;12987106;22;20378;-92
2023/09/24 20:20:03;;;;;;;1.17;1.08;;;;;;;;;;12983064;22;20428;-86
2023/09/24 20:25:13;;;;;;;1.67;1.10;;;;;;;;;;12982944;22;20366;-91
2023/09/24 20:30:16;;;;;;;1.90;0.90;;;;;;;;;;12986025;22;20371;-87
2023/09/24 20:35:18;;;;;;;1.30;1.00;;;;;;;;;;12985328;22;20908;-89
2023/09/24 20:40:22;;;;;;;2.20;0.98;;;;;;;;;;12984737;22;20367;-89
2023/09/24 20:45:24;;;;;;;2.03;0.90;;;;;;;;;;12985602;22;20424;-89
2023/09/24 20:50:29;;;;;;;1.77;1.08;;;;;;;;;;12975949;22;20383;-89
2023/09/24 20:55:33;;;;;;;2.78;0.90;;;;;;;;;;12982764;22;20383;-89
2023/09/24 21:00:40;;;;;;;1.67;1.00;;;;;;;;;;12976203;22;20436;-88
2023/09/24 21:05:43;;;;;;;2.17;1.20;;;;;;;;;;12976314;22;21291;-88
2023/09/24 21:10:46;;;;;;;2.22;1.38;;;;;;;;;;12987467;22;20375;-89
2023/09/24 21:15:49;;;;;;;2.63;1.20;;;;;;;;;;12977876;22;20421;-88
2023/09/24 21:20:53;;;;;;;2.50;1.10;;;;;;;;;;12976417;22;20374;-88
2023/09/24 21:26:05;;;;;;;1.90;1.15;;;;;;;;;;12976406;22;20853;-88
2023/09/24 21:31:08;;;;;;;3.20;1.30;;;;;;;;;;12974618;22;20382;-88
2023/09/24 21:36:11;;;;;;;1.47;1.00;;;;;;;;;;12978517;22;20753;-88
2023/09/24 21:41:15;;;;;;;2.10;1.20;;;;;;;;;;12977914;22;20428;-88
2023/09/24 21:46:18;;;;;;;2.73;1.23;;;;;;;;;;12999975;22;20367;-89
2023/09/24 21:51:20;;;;;;;1.85;1.30;;;;;;;;;;12981620;22;20387;-88
2023/09/24 21:56:25;;;;;;;7.72;1.73;;;;;;;;;;12980894;22;20413;-88
2023/09/24 22:01:27;;;;;;;3.17;1.50;;;;;;;;;;12980410;22;20358;-88
2023/09/24 22:06:32;;;;;;;3.87;1.40;;;;;;;;;;12980806;22;20401;-88
2023/09/24 22:11:37;;;;;;;2.55;1.48;;;;;;;;;;12982038;22;20367;-88
2023/09/24 22:16:39;;;;;;;3.58;2.50;;;;;;;;;;13002797;22;20378;-88
2023/09/24 22:21:42;;;;;;;3.67;2.80;;;;;;;;;;12980896;22;20428;-86
2023/09/24 22:26:45;;;;;;;3.22;2.92;;;;;;;;;;12982401;22;20413;-88
2023/09/24 22:31:48;;;;;;;3.20;2.78;;;;;;;;;;12981745;22;20392;-87
2023/09/24 22:36:51;;;;;;;3.42;2.60;;;;;;;;;;12980607;22;20452;-88
2023/09/24 22:41:55;;;;;;;3.40;2.60;;;;;;;;;;12982182;22;20393;-88
2023/09/24 22:46:59;;;;;;;4.73;2.80;;;;;;;;;;12980576;22;20367;-88
2023/09/24 22:52:01;;;;;;;4.88;2.80;;;;;;;;;;12984232;22;20355;-87
2023/09/24 22:57:06;;;;;;;3.70;2.60;;;;;;;;;;12996845;22;20382;-88
2023/09/24 23:02:08;;;;;;;4.07;2.83;;;;;;;;;;12982973;22;20888;-88
2023/09/24 23:07:11;;;;;;;3.03;2.50;;;;;;;;;;12982612;22;21083;-89
2023/09/24 23:12:15;;;;;;;3.43;2.60;;;;;;;;;;12983647;22;20428;-88
2023/09/24 23:17:17;;;;;;;3.05;2.42;;;;;;;;;;12981498;22;20406;-89
2023/09/24 23:22:20;;;;;;;3.45;2.70;;;;;;;;;;12983820;22;20416;-89
2023/09/24 23:27:24;;;;;;;2.55;2.33;;;;;;;;;;12983703;22;20452;-86
2023/09/24 23:32:28;;;;;;;3.47;2.65;;;;;;;;;;12983839;22;20347;-87
2023/09/24 23:37:31;;;;;;;4.13;2.70;;;;;;;;;;12987128;22;20378;-87
2023/09/24 23:42:35;;;;;;;3.45;2.30;;;;;;;;;;12987033;22;20444;-87
2023/09/24 23:47:37;;;;;;;4.05;2.42;;;;;;;;;;13008700;22;20428;-87
2023/09/24 23:52:39;;;;;;;2.90;2.43;;;;;;;;;;12987483;22;20416;-87
2023/09/24 23:57:43;;;;;;;5.00;2.40;;;;;;;;;;12987126;22;20591;-87
